Terminal Aerodrome Forecast
Issued by NWS

Home | Current Version | Previous Version | Text Only | Print | Product List | Glossary On
Versions: 1 2 3 4 5 6 7 8 9 10 11 12 13 14 15 16 17 18 19 20 21
000
FTAK31 PAFA 242027 AAB
TAFAOT
TAF AMD
PAOT 242027Z 2420/2518 09020G25KT 5SM -RA BR OVC019
     FM242300 14022KT P6SM -SHRA SCT025 BKN035
     FM250700 15018KT 2SM -RASN BR SCT012 OVC025=

USA.gov is the U.S. government's official web portal to all federal, state and local government web resources and services.